Time;durP1;ratioP1;P1;durP2;ratioP2;P2;SDS_P1;SDS_P2;PMS_P1;PMS_P2;Temp;Humidity;BMP_temperature;BMP_pressure;BME280_temperature;BME280_humidity;BME280_pressure;Samples;Min_cycle;Max_cycle;Signal;HPM_P1;HPM_P2
2022/01/19 00:00:44;;;;;;;36.30;13.50;;;;;;;0.88;64.45;100697.60;221438;1276;140274;-59
2022/01/19 00:05:49;;;;;;;32.20;13.50;;;;;;;0.93;64.55;100697.61;221278;1276;140990;-60
2022/01/19 00:10:52;;;;;;;29.20;14.20;;;;;;;1.01;64.72;100695.04;221384;1276;141826;-60
2022/01/19 00:15:56;;;;;;;35.80;14.40;;;;;;;1.08;64.52;100694.52;221464;1276;140370;-59
2022/01/19 00:21:00;;;;;;;31.30;13.70;;;;;;;1.13;64.58;100681.60;221298;1276;140384;-59
2022/01/19 00:26:03;;;;;;;36.30;12.90;;;;;;;1.21;64.63;100673.41;221480;1275;140685;-59
2022/01/19 00:31:06;;;;;;;33.30;13.40;;;;;;;1.23;64.75;100668.19;221291;1276;140007;-59
2022/01/19 00:36:09;;;;;;;31.40;13.50;;;;;;;1.25;64.63;100667.65;221122;1276;140956;-59
2022/01/19 00:41:13;;;;;;;36.70;14.20;;;;;;;1.27;64.85;100667.66;221127;1276;139824;-59
2022/01/19 00:46:16;;;;;;;37.00;14.50;;;;;;;1.28;64.83;100680.59;221461;1276;139600;-60
2022/01/19 00:51:19;;;;;;;36.50;14.40;;;;;;;1.31;64.99;100693.02;221498;1276;139432;-59
2022/01/19 00:56:22;;;;;;;40.60;14.20;;;;;;;1.34;64.90;100690.40;221264;1276;142890;-60
2022/01/19 01:01:25;;;;;;;36.10;13.10;;;;;;;1.38;65.04;100683.59;221394;1276;139765;-59
2022/01/19 01:06:30;;;;;;;32.30;13.30;;;;;;;1.40;65.07;100694.62;221469;1276;139823;-59
2022/01/19 01:11:36;;;;;;;32.00;13.00;;;;;;;1.37;65.37;100696.35;221295;1276;139827;-60
2022/01/19 01:16:58;;;;;;;34.20;14.20;;;;;;;1.40;65.38;100682.71;221248;1276;140648;-59
2022/01/19 01:22:02;;;;;;;33.60;12.60;;;;;;;1.40;65.40;100669.59;221466;1276;140789;-60
2022/01/19 01:27:06;;;;;;;38.70;16.00;;;;;;;1.42;65.48;100653.17;221050;1277;139888;-60
2022/01/19 01:32:10;;;;;;;42.50;17.10;;;;;;;1.46;65.67;100644.08;221120;1276;139437;-60
2022/01/19 01:37:13;;;;;;;40.50;17.00;;;;;;;1.50;65.68;100635.69;221169;1276;141707;-59
2022/01/19 01:42:20;;;;;;;39.30;16.00;;;;;;;1.57;65.76;100628.17;221131;1277;140611;-60
2022/01/19 01:47:24;;;;;;;34.20;14.30;;;;;;;1.66;65.69;100615.58;221271;1277;139602;-60
2022/01/19 01:57:52;;;;;;;33.50;15.40;;;;;;;1.79;65.65;100582.50;221420;1276;138957;-60
2022/01/19 02:02:56;;;;;;;38.50;15.10;;;;;;;1.82;65.67;100579.34;221300;1276;138941;-59
2022/01/19 02:08:05;;;;;;;36.20;15.50;;;;;;;1.81;65.43;100581.79;221456;1276;139698;-59
2022/01/19 02:23:56;;;;;;;34.30;13.70;;;;;;;1.74;65.52;100557.32;221363;1276;140246;-59
2022/01/19 02:29:14;;;;;;;32.80;13.10;;;;;;;1.79;65.58;100550.84;221445;1275;140519;-59
2022/01/19 02:50:16;;;;;;;26.70;9.50;;;;;;;1.99;65.30;100537.83;221387;1277;139483;-60
2022/01/19 02:55:19;;;;;;;22.50;9.00;;;;;;;2.01;65.25;100536.94;221379;1276;139443;-59
2022/01/19 03:11:05;;;;;;;23.80;9.60;;;;;;;1.96;65.03;100493.91;221282;1277;141067;-60
2022/01/19 03:16:08;;;;;;;22.40;8.00;;;;;;;1.94;65.01;100492.69;221333;1277;140153;-58
2022/01/19 03:21:12;;;;;;;27.60;8.90;;;;;;;1.97;64.95;100483.94;221348;1276;140086;-58
2022/01/19 03:26:15;;;;;;;28.10;9.20;;;;;;;2.03;65.14;100485.83;221027;1276;140268;-60
2022/01/19 03:31:44;;;;;;;25.30;10.10;;;;;;;2.14;65.21;100484.03;221357;1275;139392;-60
2022/01/19 03:36:48;;;;;;;25.50;8.20;;;;;;;2.19;64.91;100484.55;221365;1276;139594;-60
2022/01/19 03:41:51;;;;;;;24.10;8.80;;;;;;;2.18;64.94;100474.39;221197;1277;138754;-60
2022/01/19 03:47:03;;;;;;;19.70;8.00;;;;;;;2.17;64.90;100469.48;221274;1276;139287;-58
2022/01/19 03:52:07;;;;;;;20.30;7.90;;;;;;;2.17;64.70;100460.23;221465;1276;138955;-60
2022/01/19 03:57:12;;;;;;;23.90;7.50;;;;;;;2.15;64.76;100455.69;221264;1277;139092;-61
2022/01/19 04:02:15;;;;;;;17.70;7.10;;;;;;;2.11;64.57;100454.10;221475;1277;139589;-59
2022/01/19 04:07:18;;;;;;;25.10;7.60;;;;;;;2.05;64.53;100455.90;221003;1276;259894;-59
2022/01/19 04:12:42;;;;;;;23.60;8.00;;;;;;;2.01;64.63;100462.92;221210;1275;139187;-58
2022/01/19 04:17:54;;;;;;;19.80;7.60;;;;;;;2.04;64.74;100459.05;221159;1277;140310;-58
2022/01/19 04:22:57;;;;;;;20.40;7.50;;;;;;;2.10;64.73;100458.84;221096;1277;140460;-59
2022/01/19 04:28:07;;;;;;;20.60;7.30;;;;;;;2.16;64.68;100452.00;221307;1276;139784;-59
2022/01/19 04:33:23;;;;;;;24.00;8.00;;;;;;;2.16;64.59;100436.94;221090;1276;139515;-60
2022/01/19 04:44:13;;;;;;;27.30;8.50;;;;;;;2.23;64.51;100418.86;221167;1276;139887;-58
2022/01/19 04:54:52;;;;;;;16.80;8.00;;;;;;;2.20;64.55;100388.94;221119;1276;139643;-58
2022/01/19 05:16:23;;;;;;;20.20;8.40;;;;;;;2.09;64.38;100358.36;221288;1276;139858;-59
2022/01/19 05:21:27;;;;;;;17.10;7.00;;;;;;;2.11;64.35;100351.70;221457;1276;139486;-60
2022/01/19 05:26:56;;;;;;;23.40;8.90;;;;;;;2.12;64.23;100349.78;221059;1276;139467;-57
2022/01/19 05:32:07;;;;;;;19.80;7.70;;;;;;;2.12;64.23;100345.41;221344;1276;138843;-59
2022/01/19 05:37:12;;;;;;;19.50;8.00;;;;;;;2.12;64.18;100345.06;221321;1276;139193;-57
2022/01/19 05:42:27;;;;;;;19.90;6.90;;;;;;;2.10;64.16;100337.36;221259;1277;139182;-59
2022/01/19 05:47:30;;;;;;;18.30;7.90;;;;;;;2.14;64.14;100334.02;221335;1276;140786;-59
2022/01/19 05:52:34;;;;;;;16.10;7.30;;;;;;;2.17;64.07;100322.96;221263;1276;139449;-59
2022/01/19 05:57:37;;;;;;;16.00;7.20;;;;;;;2.21;64.15;100316.11;221239;1276;139660;-60
2022/01/19 06:02:40;;;;;;;20.40;7.70;;;;;;;2.20;63.82;100306.48;221252;1276;139881;-61
2022/01/19 06:07:45;;;;;;;18.60;7.70;;;;;;;2.13;63.84;100302.51;221284;1276;139667;-59
2022/01/19 06:13:16;;;;;;;18.60;7.40;;;;;;;2.06;63.84;100298.18;221267;1274;140410;-60
2022/01/19 06:18:20;;;;;;;16.90;6.70;;;;;;;2.01;63.78;100297.16;221145;1276;140616;-59
2022/01/19 06:23:25;;;;;;;17.60;6.80;;;;;;;1.99;63.72;100297.70;221237;1276;138987;-60
2022/01/19 06:28:40;;;;;;;20.20;8.20;;;;;;;2.00;63.85;100293.84;221094;1276;139577;-62
2022/01/19 06:33:44;;;;;;;15.60;6.60;;;;;;;1.97;63.76;100292.30;221357;1276;139950;-58
2022/01/19 06:38:48;;;;;;;16.40;7.70;;;;;;;1.93;63.74;100288.13;221266;1276;139676;-59
2022/01/19 06:44:02;;;;;;;19.30;8.20;;;;;;;1.91;63.73;100283.77;221332;1276;140972;-59
2022/01/19 06:49:05;;;;;;;18.40;6.80;;;;;;;1.91;63.86;100276.58;221066;1276;140601;-60
2022/01/19 06:54:10;;;;;;;16.90;7.40;;;;;;;1.92;63.76;100277.11;221024;1275;139742;-61
2022/01/19 06:59:15;;;;;;;17.60;7.30;;;;;;;1.91;63.66;100269.77;221104;1277;138733;-58
2022/01/19 07:04:34;;;;;;;20.10;7.70;;;;;;;1.85;63.51;100263.52;220928;1277;139396;-58
2022/01/19 07:09:37;;;;;;;22.00;7.90;;;;;;;1.80;63.51;100269.83;221404;1274;139533;-60
2022/01/19 07:14:40;;;;;;;19.70;8.50;;;;;;;1.75;63.55;100268.81;221383;1274;138756;-58
2022/01/19 07:19:44;;;;;;;19.10;8.30;;;;;;;1.73;63.51;100258.69;221287;1276;138989;-60
2022/01/19 07:24:48;;;;;;;21.10;7.50;;;;;;;1.69;63.35;100256.08;221176;1276;139128;-60
2022/01/19 07:29:51;;;;;;;18.90;7.50;;;;;;;1.70;63.47;100247.16;221206;1276;141863;-59
2022/01/19 07:34:54;;;;;;;24.80;7.90;;;;;;;1.69;63.33;100243.65;221139;1275;141966;-60
2022/01/19 07:39:58;;;;;;;17.60;7.20;;;;;;;1.72;63.49;100241.53;221390;1276;139517;-58
2022/01/19 07:45:02;;;;;;;22.20;7.90;;;;;;;1.72;63.25;100223.52;220998;1277;138970;-59
2022/01/19 07:50:34;;;;;;;21.40;8.30;;;;;;;1.64;63.19;100224.11;220725;1275;140475;-59
2022/01/19 07:55:50;;;;;;;;;;;;;;;1.60;63.29;100218.73;221289;1275;139310;-57
2022/01/19 08:01:13;;;;;;;23.30;8.60;;;;;;;1.58;63.25;100211.02;221413;1275;126544;-59
2022/01/19 08:06:39;;;;;;;25.90;8.60;;;;;;;1.59;63.31;100201.92;221184;1276;139465;-59
2022/01/19 08:11:43;;;;;;;21.40;9.10;;;;;;;1.62;63.33;100201.21;221178;1276;138899;-58
2022/01/19 08:16:56;;;;;;;24.60;9.70;;;;;;;1.64;63.28;100198.23;221264;1276;139576;-60
2022/01/19 08:22:01;;;;;;;30.30;10.20;;;;;;;1.65;63.38;100189.29;220972;1277;139230;-59
2022/01/19 08:27:05;;;;;;;21.90;10.10;;;;;;;1.65;63.26;100185.09;221150;1277;139018;-56
2022/01/19 08:32:14;;;;;;;32.20;11.90;;;;;;;1.64;63.26;100178.28;221128;1276;139187;-60
2022/01/19 08:37:52;;;;;;;31.50;13.60;;;;;;;1.66;63.25;100172.50;221273;1276;139925;-58
2022/01/19 08:42:55;;;;;;;28.30;11.40;;;;;;;1.73;63.32;100164.05;221291;1276;140341;-60
2022/01/19 08:47:58;;;;;;;34.50;12.90;;;;;;;1.71;63.30;100147.45;221109;1277;139373;-59
2022/01/19 08:53:24;;;;;;;;;;;;;;;1.70;63.29;100142.38;221373;1276;140110;-58
2022/01/19 08:59:04;;;;;;;26.60;11.40;;;;;;;1.69;63.41;100138.02;221242;1276;125653;-59
2022/01/19 09:04:07;;;;;;;31.30;12.80;;;;;;;1.64;63.42;100134.38;221340;1276;139826;-59
2022/01/19 09:09:10;;;;;;;29.50;13.20;;;;;;;1.69;63.54;100131.90;221167;1275;139773;-58
2022/01/19 09:14:13;;;;;;;32.60;12.60;;;;;;;1.81;63.60;100124.09;221334;1274;139870;-58
2022/01/19 09:19:19;;;;;;;29.10;11.30;;;;;;;1.92;63.61;100113.14;221434;1275;139186;-60
2022/01/19 09:24:22;;;;;;;22.50;9.60;;;;;;;2.03;63.55;100106.91;221308;1276;139349;-60
2022/01/19 09:29:31;;;;;;;21.80;10.30;;;;;;;2.08;63.32;100099.50;221401;1275;139616;-57
2022/01/19 09:34:34;;;;;;;23.80;10.70;;;;;;;2.09;63.19;100088.81;221292;1276;139620;-58
2022/01/19 09:39:38;;;;;;;25.20;11.40;;;;;;;2.10;62.92;100081.98;221369;1276;140571;-60
2022/01/19 09:44:41;;;;;;;27.40;11.10;;;;;;;2.07;63.20;100076.77;221238;1276;139384;-58
2022/01/19 09:49:44;;;;;;;28.70;12.20;;;;;;;2.08;63.17;100070.98;221534;1276;139673;-58
2022/01/19 09:54:49;;;;;;;22.30;11.10;;;;;;;2.01;63.07;100061.76;221227;1276;139263;-60
2022/01/19 09:59:52;;;;;;;25.70;11.70;;;;;;;1.99;63.06;100055.84;221424;1275;139808;-60
2022/01/19 10:05:04;;;;;;;28.00;11.70;;;;;;;1.98;63.19;100048.51;221364;1276;139173;-60
2022/01/19 10:10:08;;;;;;;25.80;11.10;;;;;;;2.10;63.39;100029.48;221556;1276;139855;-61
2022/01/19 10:20:38;;;;;;;;;;;;;;;2.34;63.14;100000.63;221184;1276;139218;-59
2022/01/19 10:25:51;;;;;;;21.90;8.40;;;;;;;2.39;63.02;100000.94;221437;1275;125392;-60
2022/01/19 10:30:54;;;;;;;21.60;9.60;;;;;;;2.47;63.07;99995.73;221296;1276;139097;-59
2022/01/19 10:35:58;;;;;;;19.50;7.40;;;;;;;2.62;63.02;99988.16;221160;1276;138819;-60
2022/01/19 10:41:02;;;;;;;23.30;8.00;;;;;;;2.72;62.67;99974.86;220995;1276;138616;-58
2022/01/19 10:46:25;;;;;;;19.10;8.20;;;;;;;2.80;62.54;99961.44;221503;1275;139033;-58
2022/01/19 10:51:31;;;;;;;19.40;7.60;;;;;;;2.90;62.54;99953.73;221376;1276;138716;-58
2022/01/19 10:56:35;;;;;;;18.30;7.90;;;;;;;3.02;62.26;99941.27;221290;1275;139499;-59
2022/01/19 11:01:48;;;;;;;18.20;7.30;;;;;;;3.18;62.25;99926.61;221489;1276;138580;-58
2022/01/19 11:07:03;;;;;;;17.30;6.90;;;;;;;3.39;62.23;99919.23;221321;1276;138978;-58
2022/01/19 11:12:11;;;;;;;26.20;8.30;;;;;;;3.34;61.75;99908.45;221449;1277;138852;-59
2022/01/19 11:17:14;;;;;;;19.90;8.20;;;;;;;3.28;61.67;99901.20;221330;1276;140029;-59
2022/01/19 11:22:17;;;;;;;16.20;6.90;;;;;;;3.30;61.68;99890.46;221378;1276;139291;-59
2022/01/19 11:27:20;;;;;;;18.00;8.00;;;;;;;3.34;61.65;99879.51;221441;1276;139035;-59
2022/01/19 11:32:23;;;;;;;16.40;7.40;;;;;;;3.32;61.50;99867.98;221451;1276;139690;-60
2022/01/19 11:37:38;;;;;;;15.80;8.10;;;;;;;3.31;61.43;99860.10;221368;1276;139782;-60
2022/01/19 11:42:43;;;;;;;18.30;7.70;;;;;;;3.29;61.50;99844.89;221414;1275;140130;-60
2022/01/19 11:47:46;;;;;;;18.80;7.50;;;;;;;3.33;61.58;99837.98;221431;1276;139179;-60
2022/01/19 11:52:53;;;;;;;19.30;8.10;;;;;;;3.36;61.39;99827.91;221465;1276;139135;-60
2022/01/19 11:58:21;;;;;;;17.10;8.50;;;;;;;3.39;61.31;99822.77;221488;1275;139013;-60
2022/01/19 12:03:35;;;;;;;22.00;8.30;;;;;;;3.46;61.60;99811.39;221328;1275;139441;-59
2022/01/19 12:08:58;;;;;;;21.20;9.10;;;;;;;3.54;61.59;99802.27;221450;1276;138812;-56
2022/01/19 12:14:17;;;;;;;23.10;8.80;;;;;;;3.60;61.40;99795.67;221342;1277;138707;-58
2022/01/19 12:19:29;;;;;;;19.30;8.80;;;;;;;3.68;61.41;99791.46;221326;1276;140163;-58
2022/01/19 12:24:36;;;;;;;18.10;9.40;;;;;;;3.76;61.30;99778.63;221322;1276;139198;-58
2022/01/19 12:30:01;;;;;;;16.40;8.50;;;;;;;3.90;61.31;99766.75;221293;1276;139827;-58
2022/01/19 12:35:04;;;;;;;20.80;8.50;;;;;;;3.97;61.26;99755.17;221415;1275;139487;-59
2022/01/19 12:40:35;;;;;;;17.50;8.30;;;;;;;4.06;61.07;99743.73;221542;1276;139121;-60
2022/01/19 12:45:49;;;;;;;15.10;8.20;;;;;;;4.10;60.77;99732.91;220997;1276;139192;-59
2022/01/19 12:50:54;;;;;;;19.80;9.10;;;;;;;4.12;60.80;99714.08;221333;1277;138910;-60
2022/01/19 12:56:01;;;;;;;24.40;9.70;;;;;;;4.22;60.59;99703.98;221367;1276;138906;-60
2022/01/19 13:01:09;;;;;;;19.30;9.30;;;;;;;4.42;60.80;99690.28;221417;1276;139481;-58
2022/01/19 13:06:14;;;;;;;19.00;8.70;;;;;;;4.60;60.60;99673.81;221351;1276;138876;-57
2022/01/19 13:11:41;;;;;;;25.10;10.50;;;;;;;4.67;60.37;99666.77;221378;1275;139561;-60
2022/01/19 13:16:47;;;;;;;21.80;8.90;;;;;;;4.71;60.14;99658.92;221206;1276;138893;-58
2022/01/19 13:21:58;;;;;;;16.10;8.10;;;;;;;4.67;59.72;99657.10;221099;1276;138706;-59
2022/01/19 13:27:04;;;;;;;16.80;8.10;;;;;;;4.59;59.80;99646.08;221214;1276;139337;-60
2022/01/19 13:32:22;;;;;;;25.40;8.80;;;;;;;4.53;59.38;99646.95;221247;1276;138559;-60
2022/01/19 13:37:46;;;;;;;20.50;9.50;;;;;;;4.51;59.45;99648.25;221452;1276;139048;-60
2022/01/19 13:42:57;;;;;;;23.50;9.60;;;;;;;4.49;59.57;99644.95;221329;1275;140020;-60
2022/01/19 13:53:37;;;;;;;21.40;10.10;;;;;;;4.70;59.62;99624.30;221429;1276;139475;-60
2022/01/19 13:58:42;;;;;;;21.00;11.30;;;;;;;4.85;59.48;99617.05;221498;1276;139880;-59
2022/01/19 14:03:58;;;;;;;19.40;9.80;;;;;;;4.88;59.50;99615.18;221425;1276;139764;-58
2022/01/19 14:09:23;;;;;;;24.10;10.10;;;;;;;4.90;59.04;99612.15;221138;1276;139957;-60
2022/01/19 14:14:33;;;;;;;23.20;11.30;;;;;;;4.86;59.20;99604.87;221556;1274;140615;-59
2022/01/19 14:19:46;;;;;;;23.20;10.50;;;;;;;4.78;58.94;99590.86;221379;1275;139211;-59
2022/01/19 14:24:57;;;;;;;21.60;11.10;;;;;;;4.67;58.85;99577.14;221382;1275;138714;-60
2022/01/19 14:30:27;;;;;;;22.00;11.20;;;;;;;4.57;59.19;99569.70;221424;1276;140079;-57
2022/01/19 14:35:38;;;;;;;22.00;10.80;;;;;;;4.51;59.17;99566.90;221355;1277;139775;-57
2022/01/19 14:40:49;;;;;;;24.20;11.80;;;;;;;4.43;59.22;99557.98;221474;1275;139944;-57
2022/01/19 14:46:03;;;;;;;25.90;12.30;;;;;;;4.36;59.16;99556.77;221357;1276;140051;-59
2022/01/19 14:51:37;;;;;;;26.50;12.20;;;;;;;4.26;59.10;99543.52;221386;1276;139198;-60
2022/01/19 14:56:45;;;;;;;22.90;11.70;;;;;;;4.14;59.08;99534.20;221229;1276;139224;-60
2022/01/19 15:01:52;;;;;;;26.40;12.80;;;;;;;4.04;59.14;99523.42;221357;1276;140685;-59
2022/01/19 15:07:00;;;;;;;30.30;11.80;;;;;;;3.93;59.13;99513.36;221246;1276;139152;-60
2022/01/19 15:12:04;;;;;;;22.20;11.80;;;;;;;3.84;59.33;99501.15;221370;1276;139705;-58
2022/01/19 15:17:11;;;;;;;25.70;12.20;;;;;;;3.71;59.22;99492.73;221488;1274;139334;-60
2022/01/19 15:22:14;;;;;;;28.50;12.30;;;;;;;3.67;59.60;99488.63;221549;1277;139051;-59
2022/01/19 15:27:17;;;;;;;27.40;12.50;;;;;;;3.64;59.49;99479.95;221263;1276;141275;-60
2022/01/19 15:32:21;;;;;;;27.00;13.00;;;;;;;3.56;59.32;99471.03;221279;1277;138807;-61
2022/01/19 15:37:24;;;;;;;26.70;12.40;;;;;;;3.47;59.62;99467.94;221382;1276;139621;-60
2022/01/19 15:42:27;;;;;;;35.30;12.80;;;;;;;3.41;59.69;99466.67;221302;1276;138848;-57
2022/01/19 15:47:30;;;;;;;28.60;13.40;;;;;;;3.34;59.55;99463.02;221437;1276;140168;-60
2022/01/19 15:52:34;;;;;;;29.50;13.50;;;;;;;3.31;59.79;99467.48;221589;1275;139254;-58
2022/01/19 15:57:38;;;;;;;28.40;14.00;;;;;;;3.25;59.81;99463.77;221290;1276;139161;-60
2022/01/19 16:02:41;;;;;;;30.50;14.50;;;;;;;3.20;59.87;99457.25;221331;1276;139106;-60
2022/01/19 16:07:44;;;;;;;26.60;14.20;;;;;;;3.17;59.90;99442.77;221236;1277;237666;-60
2022/01/19 16:12:47;;;;;;;37.40;15.00;;;;;;;3.12;59.96;99431.86;221537;1274;139627;-58
2022/01/19 16:17:50;;;;;;;30.30;14.70;;;;;;;3.06;60.20;99418.85;221335;1276;139208;-58
2022/01/19 16:28:15;;;;;;;35.60;16.60;;;;;;;2.96;60.30;99408.59;221489;1276;139636;-58
2022/01/19 16:33:19;;;;;;;31.70;15.90;;;;;;;2.94;60.22;99406.20;221172;1276;139266;-59
2022/01/19 16:38:22;;;;;;;33.20;15.90;;;;;;;2.92;60.30;99389.95;221419;1276;139694;-60
2022/01/19 16:43:26;;;;;;;30.20;15.80;;;;;;;2.91;60.37;99374.52;221324;1276;139333;-61
2022/01/19 16:48:29;;;;;;;32.00;16.70;;;;;;;2.90;60.40;99365.27;221331;1277;139376;-59
2022/01/19 16:53:34;;;;;;;35.50;17.00;;;;;;;2.86;60.39;99364.35;221217;1276;139243;-60
2022/01/19 16:58:37;;;;;;;34.10;16.40;;;;;;;2.83;60.42;99360.20;221467;1276;139181;-60
2022/01/19 17:03:42;;;;;;;34.80;16.90;;;;;;;2.80;60.39;99352.38;221211;1277;139977;-59
2022/01/19 17:08:45;;;;;;;34.90;17.20;;;;;;;2.73;60.48;99345.38;221353;1276;138705;-59
2022/01/19 17:13:59;;;;;;;34.70;17.60;;;;;;;2.71;60.50;99345.09;221316;1277;139745;-58
2022/01/19 17:19:02;;;;;;;33.00;16.90;;;;;;;2.69;60.75;99337.44;221276;1277;139451;-61
2022/01/19 17:24:05;;;;;;;34.30;17.40;;;;;;;2.69;60.68;99321.84;221358;1276;140935;-57
2022/01/19 17:29:08;;;;;;;33.90;17.60;;;;;;;2.67;60.67;99311.73;221582;1276;140081;-59
2022/01/19 17:34:12;;;;;;;41.00;19.70;;;;;;;2.66;60.77;99303.17;221214;1276;139489;-59
2022/01/19 17:39:15;;;;;;;33.00;17.60;;;;;;;2.65;60.74;99302.86;221389;1276;139953;-59
2022/01/19 17:44:20;;;;;;;32.20;17.50;;;;;;;2.58;60.64;99282.89;221345;1276;139678;-60
2022/01/19 17:54:29;;;;;;;;;;;;;;;2.44;60.79;99278.33;221458;1276;139354;-59
2022/01/19 17:59:32;;;;;;;44.50;20.80;;;;;;;2.39;60.98;99273.04;221449;1276;125935;-59
2022/01/19 18:04:36;;;;;;;44.70;20.30;;;;;;;2.30;60.89;99259.43;221526;1276;140396;-58
2022/01/19 18:09:40;;;;;;;44.50;20.80;;;;;;;2.21;61.05;99248.29;221466;1276;139265;-57
2022/01/19 18:14:44;;;;;;;40.80;21.10;;;;;;;2.13;61.03;99240.08;221345;1276;139030;-59
2022/01/19 18:19:48;;;;;;;51.20;23.30;;;;;;;2.10;61.33;99236.11;221352;1277;139999;-58
2022/01/19 18:24:52;;;;;;;45.10;23.80;;;;;;;2.09;61.44;99224.94;221379;1276;140930;-61
2022/01/19 18:29:55;;;;;;;46.30;23.60;;;;;;;2.09;61.42;99208.84;221319;1276;139917;-61
2022/01/19 18:34:59;;;;;;;45.50;23.60;;;;;;;2.06;61.46;99189.70;221139;1276;139400;-60
2022/01/19 18:40:05;;;;;;;49.70;24.40;;;;;;;2.03;61.55;99178.39;221477;1275;139191;-59
2022/01/19 18:45:09;;;;;;;54.30;25.90;;;;;;;2.01;61.50;99173.70;221313;1276;140089;-59
2022/01/19 18:50:12;;;;;;;58.50;26.80;;;;;;;2.01;61.68;99173.54;221000;1276;139297;-59
2022/01/19 18:55:17;;;;;;;56.10;27.30;;;;;;;2.08;61.67;99164.79;221364;1277;140766;-60
2022/01/19 19:00:22;;;;;;;57.00;28.00;;;;;;;2.18;61.80;99160.16;221337;1276;139549;-58
2022/01/19 19:05:26;;;;;;;60.50;28.10;;;;;;;2.25;61.80;99143.31;221333;1276;140039;-60
2022/01/19 19:10:51;;;;;;;53.00;28.10;;;;;;;2.30;61.75;99133.75;221519;1277;139056;-60
2022/01/19 19:15:52;;;;;;;61.90;29.30;;;;;;;2.32;61.75;99130.55;221327;1276;139133;-58
2022/01/19 19:20:56;;;;;;;66.00;30.10;;;;;;;2.33;61.65;99116.85;221366;1275;139022;-62
2022/01/19 19:26:00;;;;;;;52.90;27.10;;;;;;;2.33;61.74;99110.73;221425;1276;139328;-60
2022/01/19 19:31:03;;;;;;;54.60;27.60;;;;;;;2.27;61.54;99099.89;221463;1276;142144;-57
2022/01/19 19:36:06;;;;;;;64.90;31.10;;;;;;;2.21;61.53;99094.09;221208;1276;139349;-60
2022/01/19 19:41:10;;;;;;;59.80;31.00;;;;;;;2.14;61.48;99081.67;221288;1276;139153;-63
2022/01/19 19:46:13;;;;;;;70.30;32.30;;;;;;;2.06;61.54;99066.13;221383;1275;139523;-63
2022/01/19 19:51:17;;;;;;;67.70;32.70;;;;;;;2.04;61.79;99056.23;221377;1277;140663;-61
2022/01/19 19:56:20;;;;;;;62.50;29.90;;;;;;;2.08;61.98;99034.06;221291;1275;139949;-62
2022/01/19 20:01:24;;;;;;;59.50;30.00;;;;;;;2.03;61.63;99018.11;221281;1276;139413;-61
2022/01/19 20:06:27;;;;;;;61.70;29.60;;;;;;;1.95;61.72;98996.81;221202;1276;139624;-62
2022/01/19 20:11:33;;;;;;;53.40;27.50;;;;;;;1.83;61.50;98980.02;221148;1276;140373;-61
2022/01/19 20:16:36;;;;;;;60.20;29.60;;;;;;;1.74;61.63;98968.38;221408;1276;138726;-61
2022/01/19 20:21:41;;;;;;;65.20;31.50;;;;;;;1.66;61.79;98960.73;221063;1277;139573;-61
2022/01/19 20:26:47;;;;;;;55.30;28.70;;;;;;;1.59;61.95;98949.34;221266;1275;139456;-62
2022/01/19 20:31:50;;;;;;;54.40;29.60;;;;;;;1.55;62.05;98949.80;221402;1276;139084;-63
2022/01/19 20:36:53;;;;;;;56.50;30.00;;;;;;;1.45;62.06;98951.48;221319;1276;141777;-62
2022/01/19 20:41:56;;;;;;;69.00;33.60;;;;;;;1.35;62.00;98942.81;221360;1274;140042;-59
2022/01/19 20:47:00;;;;;;;72.00;35.80;;;;;;;1.28;62.21;98937.77;221342;1276;139095;-62
2022/01/19 20:52:04;;;;;;;63.70;32.30;;;;;;;1.26;62.48;98928.56;221511;1275;138913;-59
2022/01/19 20:57:07;;;;;;;71.50;34.00;;;;;;;1.25;62.60;98919.69;221461;1276;139327;-60
2022/01/19 21:02:12;;;;;;;70.70;35.10;;;;;;;1.23;62.55;98906.98;221350;1276;139399;-59
2022/01/19 21:07:15;;;;;;;88.80;42.10;;;;;;;1.17;62.48;98898.56;221404;1275;139354;-61
2022/01/19 21:12:19;;;;;;;72.30;34.90;;;;;;;1.18;62.69;98892.27;221234;1275;139317;-62
2022/01/19 21:17:22;;;;;;;68.40;36.00;;;;;;;1.30;62.95;98888.96;221219;1276;140007;-61
2022/01/19 21:22:25;;;;;;;67.30;35.10;;;;;;;1.41;62.99;98885.85;221184;1276;139533;-56
2022/01/19 21:27:28;;;;;;;72.60;37.00;;;;;;;1.51;62.88;98881.77;221231;1276;139745;-60
2022/01/19 21:32:31;;;;;;;87.00;42.10;;;;;;;1.56;62.70;98891.40;221408;1275;138950;-58
2022/01/19 21:37:34;;;;;;;89.80;46.40;;;;;;;1.56;62.62;98902.05;221524;1276;138888;-63
2022/01/19 21:42:37;;;;;;;96.20;47.50;;;;;;;1.55;62.57;98904.02;220955;1276;138835;-63
2022/01/19 21:47:41;;;;;;;98.80;48.80;;;;;;;1.45;62.34;98900.95;221356;1275;140968;-63
2022/01/19 21:52:45;;;;;;;104.70;51.60;;;;;;;1.34;62.17;98892.88;221305;1276;138913;-60
2022/01/19 21:57:50;;;;;;;111.10;52.80;;;;;;;1.24;62.32;98877.42;221293;1276;138920;-61
2022/01/19 22:02:52;;;;;;;95.50;45.50;;;;;;;1.20;62.30;98869.48;221381;1276;139736;-59
2022/01/19 22:07:56;;;;;;;94.80;48.80;;;;;;;1.16;62.22;98862.42;221277;1276;138773;-59
2022/01/19 22:12:59;;;;;;;97.20;49.00;;;;;;;1.10;62.23;98865.57;221318;1276;139353;-60
2022/01/19 22:18:03;;;;;;;100.40;49.90;;;;;;;0.96;62.17;98865.23;221350;1276;141286;-58
2022/01/19 22:23:06;;;;;;;109.30;51.20;;;;;;;0.82;62.39;98865.25;221588;1275;139024;-60
2022/01/19 22:28:08;;;;;;;101.50;49.50;;;;;;;0.77;62.59;98864.00;221323;1276;139009;-59
2022/01/19 22:33:11;;;;;;;106.10;47.50;;;;;;;0.79;62.66;98856.94;221127;1274;139958;-60
2022/01/19 22:38:14;;;;;;;92.00;44.10;;;;;;;0.86;62.74;98848.38;221243;1275;140520;-55
2022/01/19 22:43:17;;;;;;;88.70;43.50;;;;;;;0.96;62.63;98842.52;221569;1276;139463;-58
2022/01/19 22:48:21;;;;;;;94.90;42.70;;;;;;;1.07;62.81;98834.02;221371;1276;139245;-59
2022/01/19 22:53:24;;;;;;;78.30;37.80;;;;;;;1.19;62.74;98821.14;221440;1275;138792;-60
2022/01/19 22:58:27;;;;;;;75.60;34.90;;;;;;;1.30;62.56;98815.40;221435;1276;140023;-61
2022/01/19 23:03:30;;;;;;;68.30;32.30;;;;;;;1.39;62.48;98809.73;221429;1276;138961;-59
2022/01/19 23:08:34;;;;;;;66.50;30.80;;;;;;;1.47;62.50;98808.10;221159;1276;138565;-58
2022/01/19 23:13:38;;;;;;;67.60;29.40;;;;;;;1.53;62.27;98812.82;221350;1276;138872;-60
2022/01/19 23:18:42;;;;;;;61.20;29.40;;;;;;;1.51;62.18;98810.42;221245;1276;139259;-59
2022/01/19 23:23:45;;;;;;;53.90;25.60;;;;;;;1.48;62.06;98815.42;221259;1276;138868;-59
2022/01/19 23:28:48;;;;;;;58.00;24.10;;;;;;;1.50;62.22;98807.31;221442;1276;138834;-60
2022/01/19 23:33:51;;;;;;;56.70;23.90;;;;;;;1.59;62.36;98815.60;221338;1274;139217;-59
2022/01/19 23:39:13;;;;;;;49.90;23.60;;;;;;;1.68;62.42;98820.94;221336;1276;139394;-60
2022/01/19 23:49:39;;;;;;;57.10;25.80;;;;;;;1.84;62.31;98812.40;221335;1276;138728;-63
2022/01/19 23:54:42;;;;;;;55.80;25.80;;;;;;;1.94;62.31;98806.52;221340;1276;139249;-60
2022/01/19 23:59:56;;;;;;;55.90;26.10;;;;;;;2.04;62.32;98796.57;221343;1275;138906;-57
